Thunder radar more information blitzortung!


avis per Pluja more information rain snow radar


Visita la nostra xarxa de llocs de meteo:

Template documentation
and downloads

And another site



Rain From: 15-11-2018 00:00 Until: 23:59 warning for: Rain Level: Yellow info button

Pagina Historial Weather Underground text

Diari Resum January 23, 2018 Unitats:  Mètric    Imperial   Tant
« Previous Dia
SegĂźent Dia »
Diari Setmana Mensual Anual Personalitzada
  Maxima: Minima: Media:
Temperatura: -17.8 °C -14.4 °C -11.7 °C
Punt de rosada: -17.8 °C -16.2 °C -15 °C
Humitat: Humidity % 55 % 67 %
Wind Speed: 0 km/h 0 km/h 6.3 km/h
RĂ fegues de vent: 0 km/h - -
Vent:- - SSE
Pression baro: 0 hPa 34669.3 hPa -
Precipitacions: 0 mm    
Historical Graphs
 
 
Dades de taula per January 23, 2018
Temps Temperatura Punt de rosada Pression baro Vent Wind Speed RĂ fegues de vent Humitat Rainfall Rate (Hourly)
-17.8 °C -17.8 °C 0 hPa Calm     Humidity % 0 mm
00:00 -11.2 °C -15.2 °C 34740.4 hPa Calm   7.7 km/h 61 % 0 mm
00:05 -11.3 °C -15.3 °C 34740.4 hPa NNE 5.1 km/h 7.7 km/h 61 % 0 mm
00:10 -11.3 °C -15.4 °C 34740.4 hPa Calm     61 % 0 mm
00:15 -11.4 °C -15.4 °C 34740.4 hPa NE 3.1 km/h 3.1 km/h 61 % 0 mm
00:20 -11.5 °C -15.5 °C 34740.4 hPa WNW 4.2 km/h 4.2 km/h 61 % 0 mm
00:25 -11.6 °C -15.4 °C 34740.4 hPa Calm     62 % 0 mm
00:30 -11.6 °C -15.5 °C 34740.4 hPa WNW 6 km/h 6 km/h 62 % 0 mm
00:35 -11.6 °C -15.5 °C 34703.1 hPa NW 3.1 km/h 3.1 km/h 62 % 0 mm
00:40 -11.6 °C -15.3 °C 34703.1 hPa NE 6 km/h 6 km/h 63 % 0 mm
00:45 -11.5 °C -15.3 °C 34703.1 hPa NNE 9 km/h 9 km/h 63 % 0 mm
00:50 -11.6 °C -15.4 °C 34703.1 hPa NE 3.1 km/h 3.1 km/h 63 % 0 mm
00:55 -11.7 °C -15.4 °C 34703.1 hPa Calm     63 % 0 mm
01:00 -11.7 °C -15.5 °C 34703.1 hPa WNW 6 km/h 6 km/h 63 % 0 mm
01:05 -11.7 °C -15.4 °C 34703.1 hPa NNE 6 km/h 6 km/h 64 % 0 mm
01:10 -11.8 °C -15.4 °C 34703.1 hPa WNW 5.1 km/h 5.1 km/h 64 % 0 mm
01:15 -11.8 °C -15.4 °C 34703.1 hPa NW 3.1 km/h   64 % 0 mm
01:20 -11.8 °C -15.4 °C 34703.1 hPa WNW 3.7 km/h 3.7 km/h 64 % 0 mm
01:25 -11.9 °C -15.5 °C 34703.1 hPa NNE 3.1 km/h   64 % 0 mm
01:30 -11.9 °C -15.4 °C 34703.1 hPa ENE 3.1 km/h 3.1 km/h 65 % 0 mm
01:35 -11.9 °C -15.4 °C 34703.1 hPa NNE 3.1 km/h   65 % 0 mm
01:40 -12 °C -15.5 °C 34703.1 hPa NNE 3.1 km/h   65 % 0 mm
01:45 -12.1 °C -15.6 °C 34703.1 hPa NNE 6 km/h 6 km/h 65 % 0 mm
01:50 -12.1 °C -15.6 °C 34703.1 hPa West 9 km/h 9 km/h 65 % 0 mm
01:56 -12.1 °C -15.6 °C 34703.1 hPa NNE 6.3 km/h 6.3 km/h 65 % 0 mm
02:01 -12.1 °C -15.6 °C 34703.1 hPa NNW 6 km/h 6 km/h 65 % 0 mm
02:11 -12.1 °C -15.6 °C 34740.4 hPa WSW 6 km/h 6 km/h 65 % 0 mm
02:21 -12.1 °C -15.6 °C 34669.3 hPa WSW 6 km/h 6 km/h 65 % 0 mm
02:26 -12 °C -15.5 °C 34669.3 hPa WNW 9.8 km/h 9.8 km/h 65 % 0 mm
02:31 -11.9 °C -15.3 °C 34669.3 hPa WNW 6 km/h 6 km/h 66 % 0 mm
02:36 -11.7 °C -15.1 °C 34669.3 hPa WSW 11.9 km/h 11.9 km/h 66 % 0 mm
02:41 -11.6 °C -15 °C 34669.3 hPa West 9 km/h 9 km/h 66 % 0 mm
02:51 -11.6 °C -14.8 °C 34703.1 hPa ENE 7.6 km/h 7.6 km/h 67 % 0 mm
02:56 -12.2 °C -15.5 °C 34703.1 hPa NE 6 km/h 6 km/h 66 % 0 mm
03:01 -12.3 °C -15.7 °C 34703.1 hPa West 6 km/h 6 km/h 66 % 0 mm
03:06 -12.4 °C -15.8 °C 34703.1 hPa West 6.3 km/h 6.3 km/h 66 % 0 mm
03:11 -12.5 °C -15.7 °C 34703.1 hPa WSW 6 km/h   67 % 0 mm
03:16 -12.4 °C -15.6 °C 34740.4 hPa NE 3.1 km/h   68 % 0 mm
03:21 -12.4 °C -15.5 °C 34740.4 hPa NNE 6 km/h 6 km/h 68 % 0 mm
03:31 -12.6 °C -15.7 °C 34740.4 hPa ENE 6 km/h 6 km/h 68 % 0 mm
03:37 -12.6 °C -15.6 °C 34740.4 hPa WSW 3.1 km/h 3.1 km/h 69 % 0 mm
03:47 -12.7 °C -15.7 °C 34740.4 hPa WSW 3.7 km/h   69 % 0 mm
03:52 -12.7 °C -15.8 °C 34740.4 hPa WSW 6.3 km/h 6.3 km/h 68 % 0 mm
03:57 -12.8 °C -15.8 °C 34740.4 hPa Calm     69 % 0 mm
04:02 -12.8 °C -15.7 °C 34740.4 hPa Calm     70 % 0 mm
04:07 -12.8 °C -15.8 °C 34740.4 hPa WSW 6 km/h 6.3 km/h 69 % 0 mm
04:12 -12.8 °C -15.8 °C 34740.4 hPa WSW 5.1 km/h 5.1 km/h 69 % 0 mm
04:17 -12.9 °C -15.9 °C 34740.4 hPa WSW 3.1 km/h   69 % 0 mm
04:22 -13 °C -16 °C 34740.4 hPa West 6.3 km/h 6.3 km/h 69 % 0 mm
04:27 -13.1 °C -16.1 °C 34740.4 hPa WNW 3.7 km/h 3.7 km/h 69 % 0 mm
04:32 -13 °C -16 °C 34740.4 hPa WNW 6 km/h 6 km/h 69 % 0 mm
04:37 -12.9 °C -15.8 °C 34740.4 hPa NE 3.1 km/h   70 % 0 mm
04:42 -13 °C -15.8 °C 34740.4 hPa NNW 3.1 km/h   71 % 0 mm
04:52 -12.9 °C -15.7 °C 34740.4 hPa NE 7.6 km/h 7.6 km/h 71 % 0 mm
05:02 -13 °C -15.8 °C 34703.1 hPa NNE 3.1 km/h   71 % 0 mm
05:12 -13.1 °C -15.9 °C 34703.1 hPa Calm     71 % 0 mm
05:17 -13.2 °C -15.9 °C 34740.4 hPa WNW 4.2 km/h 4.2 km/h 71 % 0 mm
05:22 -13.1 °C -15.9 °C 34740.4 hPa NW 6 km/h   71 % 0 mm
05:27 -13.2 °C -15.9 °C 34740.4 hPa WNW 3.1 km/h 3.1 km/h 71 % 0 mm
05:32 -13.2 °C -15.9 °C 34740.4 hPa WNW 5.1 km/h 5.1 km/h 71 % 0 mm
05:37 -13.1 °C -15.7 °C 34740.4 hPa North 3.1 km/h 3.1 km/h 72 % 0 mm
05:47 -13.1 °C -15.7 °C 34740.4 hPa West 3.7 km/h 3.7 km/h 72 % 0 mm
05:52 -13.2 °C -15.8 °C 34740.4 hPa NNE 6 km/h 6 km/h 72 % 0 mm
05:57 -13.1 °C -15.6 °C 34740.4 hPa NNE 11.9 km/h 11.9 km/h 73 % 0 mm
06:02 -13.1 °C -15.7 °C 34703.1 hPa NNE 5.1 km/h   72 % 0 mm
06:07 -13.1 °C -15.7 °C 34703.1 hPa ENE 11.9 km/h 11.9 km/h 72 % 0 mm
06:12 -13.2 °C -15.7 °C 34703.1 hPa ENE 6 km/h 6 km/h 73 % 0 mm
06:17 -13.2 °C -15.8 °C 34740.4 hPa ENE 6.3 km/h 6.3 km/h 72 % 0 mm
06:22 -13.2 °C -15.7 °C 34740.4 hPa NNW 9 km/h 9 km/h 73 % 0 mm
06:27 -13.2 °C -15.7 °C 34740.4 hPa WNW 6 km/h 6 km/h 73 % 0 mm
06:32 -13.2 °C -15.7 °C 34740.4 hPa NE 6 km/h 6 km/h 73 % 0 mm
06:37 -13.2 °C -15.7 °C 34740.4 hPa North 6 km/h 6 km/h 73 % 0 mm
06:42 -13.3 °C -15.8 °C 34740.4 hPa WNW 5.1 km/h   73 % 0 mm
06:47 -13.3 °C -15.8 °C 34774.2 hPa North 9 km/h 9 km/h 73 % 0 mm
06:57 -13.3 °C -15.8 °C 34774.2 hPa NNW 6.3 km/h 6.3 km/h 73 % 0 mm
07:02 -13.3 °C -15.9 °C 34774.2 hPa NW 6 km/h   73 % 0 mm
07:07 -13.4 °C -15.9 °C 34774.2 hPa North 6 km/h 6 km/h 73 % 0 mm
07:12 -13.3 °C -15.9 °C 34774.2 hPa North 10.3 km/h 10.3 km/h 73 % 0 mm
07:17 -13.3 °C -15.7 °C 34774.2 hPa NNE 6 km/h 6 km/h 74 % 0 mm
07:27 -13.4 °C -15.9 °C 34774.2 hPa West 6 km/h 6 km/h 73 % 0 mm
07:32 -13.4 °C -15.9 °C 34774.2 hPa West 3.1 km/h   74 % 0 mm
07:37 -13.5 °C -16 °C 34774.2 hPa WSW 6.3 km/h 6.3 km/h 73 % 0 mm
07:42 -13.7 °C -16.1 °C 34774.2 hPa SSW 3.1 km/h   74 % 0 mm
07:47 -13.7 °C -16.1 °C 34774.2 hPa ENE 6 km/h   74 % 0 mm
08:02 -13.5 °C -15.8 °C 34774.2 hPa WNW 3.7 km/h 3.7 km/h 75 % 0 mm
08:07 -13.5 °C -15.9 °C 34774.2 hPa WNW 6 km/h 6 km/h 74 % 0 mm
08:12 -13.6 °C -15.9 °C 34774.2 hPa NNE 9 km/h 9 km/h 74 % 0 mm
08:22 -13.6 °C -16 °C 34774.2 hPa Calm     74 % 0 mm
08:32 -13.4 °C -15.7 °C 34808.1 hPa WNW 3.1 km/h   75 % 0 mm
08:42 -13.2 °C -15.5 °C 34808.1 hPa NNE 6 km/h 6 km/h 75 % 0 mm
08:47 -13.1 °C -15.4 °C 34808.1 hPa NNE 6.3 km/h 6.3 km/h 75 % 0 mm
08:52 -13 °C -15.3 °C 34808.1 hPa NNE 6 km/h 6 km/h 75 % 0 mm
09:02 -12.8 °C -15.3 °C 34808.1 hPa ENE 6 km/h 6 km/h 74 % 0 mm
09:07 -12.8 °C -15.3 °C 34808.1 hPa ENE 9 km/h 9 km/h 73 % 0 mm
09:12 -12.7 °C -15.2 °C 34808.1 hPa NNE 3.7 km/h 3.7 km/h 73 % 0 mm
09:17 -12.6 °C -15.2 °C 34808.1 hPa NNE 7.6 km/h 7.6 km/h 73 % 0 mm
09:22 -12.6 °C -15.2 °C 34808.1 hPa NNW 5.6 km/h 5.6 km/h 72 % 0 mm
09:27 -12.4 °C -15.1 °C 34808.1 hPa NNE 3.7 km/h 3.7 km/h 72 % 0 mm
09:32 -12.3 °C -15 °C 34808.1 hPa NNW 6.8 km/h 6.8 km/h 72 % 0 mm
09:37 -12.2 °C -14.9 °C 34808.1 hPa West 6 km/h 6 km/h 72 % 0 mm
09:42 -12.1 °C -14.9 °C 34808.1 hPa North 6.3 km/h 6.3 km/h 71 % 0 mm
09:47 -12.1 °C -15.1 °C 34774.2 hPa NE 9 km/h 9 km/h 70 % 0 mm
09:52 -12.2 °C -15.1 °C 34774.2 hPa NNE 11.9 km/h 11.9 km/h 70 % 0 mm
09:57 -12.2 °C -15.1 °C 34774.2 hPa North 15 km/h 15 km/h 70 % 0 mm
10:02 -12.1 °C -14.9 °C 34808.1 hPa NNE 15 km/h 15 km/h 71 % 0 mm
10:07 -12 °C -14.8 °C 34808.1 hPa NNE 9 km/h 9 km/h 71 % 0 mm
10:12 -11.9 °C -14.8 °C 34808.1 hPa NNE 6 km/h 6 km/h 70 % 0 mm
10:17 -11.7 °C -14.6 °C 34808.1 hPa NNE 7.6 km/h 7.6 km/h 70 % 0 mm
10:22 -11.8 °C -14.9 °C 34808.1 hPa NNE 15 km/h 15 km/h 69 % 0 mm
10:28 -11.9 °C -14.9 °C 34808.1 hPa North 17.9 km/h 17.9 km/h 69 % 0 mm
10:33 -11.8 °C -14.9 °C 34808.1 hPa East 15 km/h 15 km/h 69 % 0 mm
10:38 -11.8 °C -14.8 °C 34808.1 hPa ENE 15.6 km/h 15.6 km/h 69 % 0 mm
10:43 -11.8 °C -14.8 °C 34808.1 hPa East 15 km/h 15 km/h 69 % 0 mm
10:48 -11.7 °C -14.8 °C 34841.9 hPa NE 9 km/h 9 km/h 68 % 0 mm
10:53 -11.7 °C -14.8 °C 34841.9 hPa NNE 15 km/h 15 km/h 68 % 0 mm
10:58 -11.6 °C -14.8 °C 34841.9 hPa NE 15 km/h 15 km/h 68 % 0 mm
11:03 -11.6 °C -14.8 °C 34841.9 hPa NE 8 km/h 8 km/h 68 % 0 mm
11:08 -11.6 °C -14.9 °C 34841.9 hPa NNE 20.9 km/h 20.9 km/h 67 % 0 mm
11:13 -11.4 °C -14.6 °C 34841.9 hPa ENE 9 km/h 9 km/h 68 % 0 mm
11:23 -11.2 °C -14.5 °C 34841.9 hPa NE 15 km/h 15 km/h 67 % 0 mm
11:28 -11.2 °C -14.6 °C 34841.9 hPa ENE 15 km/h 15 km/h 66 % 0 mm
11:38 -11.2 °C -14.6 °C 34841.9 hPa North 6.8 km/h 6.8 km/h 66 % 0 mm
11:48 -11.1 °C -14.6 °C 34841.9 hPa ENE 9 km/h 9 km/h 66 % 0 mm
11:53 -11.1 °C -14.7 °C 34841.9 hPa NW 11.9 km/h 11.9 km/h 65 % 0 mm
11:58 -10.9 °C -14.5 °C 34841.9 hPa NNE 11.9 km/h 11.9 km/h 65 % 0 mm
12:03 -11 °C -14.6 °C 34841.9 hPa NNE 15 km/h 15 km/h 65 % 0 mm
12:08 -10.9 °C -14.4 °C 34841.9 hPa NE 9 km/h 9 km/h 65 % 0 mm
12:13 -10.7 °C -14.3 °C 34841.9 hPa NE 6.8 km/h 6.8 km/h 65 % 0 mm
12:23 -10.7 °C -14.4 °C 34808.1 hPa NE 14 km/h 14 km/h 64 % 0 mm
12:28 -10.8 °C -14.5 °C 34808.1 hPa ENE 20.9 km/h 20.9 km/h 64 % 0 mm
12:33 -10.6 °C -14.3 °C 34808.1 hPa NNE 11.9 km/h 11.9 km/h 64 % 0 mm
12:38 -10.6 °C -14.3 °C 34808.1 hPa NE 11.9 km/h 11.9 km/h 64 % 0 mm
12:43 -10.4 °C -14.3 °C 34808.1 hPa NNE 17.9 km/h 17.9 km/h 63 % 0 mm
12:48 -10.3 °C -14.1 °C 34808.1 hPa NNE 15 km/h 15 km/h 64 % 0 mm
12:53 -10.1 °C -13.9 °C 34808.1 hPa NE 15 km/h 15 km/h 63 % 0 mm
12:58 -10.2 °C -14.1 °C 34808.1 hPa NNE 15 km/h 15.6 km/h 62 % 0 mm
13:03 -10.1 °C -13.9 °C 34774.2 hPa ENE 9 km/h 9 km/h 63 % 0 mm
13:08 -10 °C -14 °C 34774.2 hPa NNE 15 km/h 15 km/h 62 % 0 mm
13:13 -9.9 °C -13.9 °C 34774.2 hPa ENE 15 km/h 15 km/h 62 % 0 mm
13:18 -9.6 °C -13.6 °C 34774.2 hPa North 9 km/h 9 km/h 62 % 0 mm
13:23 -9.4 °C -13.4 °C 34774.2 hPa NE 11.9 km/h 11.9 km/h 62 % 0 mm
13:28 -9 °C -13.2 °C 34774.2 hPa WNW 7.6 km/h 7.6 km/h 61 % 0 mm
13:33 -8.9 °C -13.2 °C 34774.2 hPa SW 9 km/h 9 km/h 60 % 0 mm
13:38 -8.8 °C -13.1 °C 34774.2 hPa West 15 km/h 15 km/h 60 % 0 mm
13:43 -8.7 °C -13.2 °C 34774.2 hPa WNW 15 km/h 15 km/h 59 % 0 mm
13:53 -8.4 °C -13 °C 34774.2 hPa WSW 23.8 km/h 23.8 km/h 58 % 0 mm
13:58 -8.4 °C -13.2 °C 34774.2 hPa West 15 km/h 15 km/h 57 % 0 mm
14:03 -8.4 °C -13.2 °C 34774.2 hPa WNW 9 km/h 9 km/h 57 % 0 mm
14:08 -8.4 °C -13.2 °C 34774.2 hPa SW 7.6 km/h 7.6 km/h 57 % 0 mm
14:13 -8.3 °C -13.2 °C 34774.2 hPa SW 9 km/h 9 km/h 56 % 0 mm
14:18 -8.3 °C -13.3 °C 34774.2 hPa ESE 9.8 km/h 9.8 km/h 55 % 0 mm
14:28 -8.4 °C -13.3 °C 34774.2 hPa NNE 20.9 km/h 20.9 km/h 56 % 0 mm
14:33 -8.6 °C -13.6 °C 34774.2 hPa NNE 9 km/h 9 km/h 55 % 0 mm
14:38 -8.6 °C -13.4 °C 34774.2 hPa ENE 6 km/h 6 km/h 56 % 0 mm
14:43 -8.4 °C -13.3 °C 34774.2 hPa NE 6 km/h 6 km/h 56 % 0 mm
14:53 -8.6 °C -13.6 °C 34774.2 hPa WSW 11.9 km/h 11.9 km/h 55 % 0 mm
14:58 -8.6 °C -13.6 °C 34774.2 hPa NE 6 km/h 6 km/h 55 % 0 mm
15:13 -8.7 °C -13.6 °C 34774.2 hPa NNE 14 km/h 14 km/h 56 % 0 mm
15:18 -8.8 °C -13.7 °C 34774.2 hPa East 15 km/h 15 km/h 56 % 0 mm
15:28 -8.9 °C -13.8 °C 34774.2 hPa NE 8.5 km/h 8.5 km/h 56 % 0 mm
15:33 -8.9 °C -13.8 °C 34774.2 hPa North 9 km/h 9 km/h 56 % 0 mm
15:38 -9 °C -13.8 °C 34774.2 hPa NNE 11.9 km/h 11.9 km/h 56 % 0 mm
15:43 -9.1 °C -13.9 °C 34774.2 hPa NE 6.8 km/h 6.8 km/h 56 % 0 mm
15:48 -9 °C -13.8 °C 34808.1 hPa NNE 9 km/h 9 km/h 56 % 0 mm
15:53 -8.9 °C -13.8 °C 34808.1 hPa North 11.9 km/h 11.9 km/h 56 % 0 mm
15:58 -9 °C -13.8 °C 34808.1 hPa NNE 10.3 km/h 10.3 km/h 56 % 0 mm
16:03 -9.1 °C -13.9 °C 34774.2 hPa NNW 9 km/h 9 km/h 56 % 0 mm
16:23 -9.2 °C -13.9 °C 34808.1 hPa NNE 11.9 km/h 11.9 km/h 57 % 0 mm
16:28 -9.3 °C -14 °C 34808.1 hPa NE 11.9 km/h 11.9 km/h 57 % 0 mm
16:33 -9.3 °C -14 °C 34808.1 hPa North 9 km/h 9 km/h 57 % 0 mm
16:38 -9.3 °C -14.1 °C 34808.1 hPa NNE 6 km/h 6 km/h 57 % 0 mm
16:48 -9.3 °C -13.9 °C 34808.1 hPa North 9 km/h 9 km/h 58 % 0 mm
16:53 -9.3 °C -13.9 °C 34808.1 hPa NNW 4.2 km/h   58 % 0 mm
16:58 -9.4 °C -13.9 °C 34808.1 hPa ENE 6 km/h 6 km/h 58 % 0 mm
17:08 -9.5 °C -14.1 °C 34774.2 hPa NNE 6.3 km/h 6.3 km/h 58 % 0 mm
17:13 -9.6 °C -14.1 °C 34774.2 hPa ENE 9 km/h 9 km/h 58 % 0 mm
17:23 -9.7 °C -14.1 °C 34808.1 hPa NNW 8 km/h 8 km/h 59 % 0 mm
17:28 -9.8 °C -14.2 °C 34808.1 hPa NNE 6 km/h 6 km/h 59 % 0 mm
17:38 -10 °C -14.3 °C 34808.1 hPa ENE 9 km/h 9 km/h 60 % 0 mm
17:43 -10.1 °C -14.3 °C 34808.1 hPa NNE 7.6 km/h 7.6 km/h 60 % 0 mm
17:53 -10.3 °C -14.4 °C 34808.1 hPa Calm     61 % 0 mm
17:58 -10.3 °C -14.4 °C 34808.1 hPa WNW 6 km/h 6 km/h 61 % 0 mm
18:08 -10.4 °C -14.4 °C 34841.9 hPa WNW 3.1 km/h   62 % 0 mm
18:13 -10.5 °C -14.4 °C 34841.9 hPa Calm     62 % 0 mm
18:23 -10.6 °C -14.6 °C 34841.9 hPa ENE 3.7 km/h   62 % 0 mm
18:28 -10.7 °C -14.5 °C 34841.9 hPa Calm     63 % 0 mm
18:33 -10.7 °C -14.6 °C 34875.8 hPa WNW 4.2 km/h 4.2 km/h 62 % 0 mm
18:38 -10.8 °C -14.6 °C 34875.8 hPa WNW 6 km/h 6 km/h 63 % 0 mm
18:43 -10.8 °C -14.6 °C 34875.8 hPa West 6 km/h 6 km/h 63 % 0 mm
18:48 -10.8 °C -14.6 °C 34875.8 hPa West 3.7 km/h 3.7 km/h 63 % 0 mm
18:53 -10.9 °C -14.6 °C 34875.8 hPa Calm     64 % 0 mm
18:58 -10.9 °C -14.6 °C 34875.8 hPa West 3.1 km/h   64 % 0 mm
19:03 -10.9 °C -14.6 °C 34875.8 hPa Calm     64 % 0 mm
19:08 -10.9 °C -14.6 °C 34875.8 hPa Calm     64 % 0 mm
19:13 -10.9 °C -14.6 °C 34875.8 hPa West 6 km/h 6 km/h 64 % 0 mm
19:18 -11.1 °C -14.7 °C 34875.8 hPa Calm     64 % 0 mm
19:23 -11.1 °C -14.7 °C 34875.8 hPa West 3.7 km/h 3.7 km/h 64 % 0 mm
19:28 -11.1 °C -14.6 °C 34875.8 hPa Calm     65 % 0 mm
19:33 -11.1 °C -14.6 °C 34875.8 hPa Calm     65 % 0 mm
19:38 -11.1 °C -14.6 °C 34875.8 hPa Calm     65 % 0 mm
19:43 -11.1 °C -14.6 °C 34875.8 hPa SW 6.3 km/h   65 % 0 mm
19:48 -11.5 °C -15.1 °C 34875.8 hPa SW 6 km/h 6 km/h 65 % 0 mm
19:53 -11.6 °C -15.1 °C 34875.8 hPa Calm     65 % 0 mm
20:03 -11.6 °C -14.9 °C 34875.8 hPa Calm     66 % 0 mm
20:08 -11.6 °C -14.8 °C 34875.8 hPa Calm     67 % 0 mm
20:13 -11.5 °C -14.9 °C 34875.8 hPa WSW 3.1 km/h 3.1 km/h 66 % 0 mm
20:18 -11.5 °C -14.9 °C 34875.8 hPa West 6 km/h 6 km/h 66 % 0 mm
20:23 -11.4 °C -14.8 °C 34875.8 hPa West 6 km/h 6 km/h 66 % 0 mm
20:28 -11.4 °C -14.7 °C 34875.8 hPa West 6 km/h 6 km/h 67 % 0 mm
20:38 -11.5 °C -14.8 °C 34875.8 hPa WSW 3.1 km/h 3.1 km/h 67 % 0 mm
20:43 -11.5 °C -14.8 °C 34875.8 hPa Calm     67 % 0 mm
20:48 -11.5 °C -14.8 °C 34875.8 hPa West 6 km/h 6 km/h 67 % 0 mm
20:53 -11.5 °C -14.8 °C 34875.8 hPa WSW 6.3 km/h 6.3 km/h 67 % 0 mm
20:58 -11.6 °C -14.8 °C 34875.8 hPa West 6 km/h 6.8 km/h 67 % 0 mm
21:03 -11.6 °C -14.8 °C 34875.8 hPa SW 6 km/h 6 km/h 67 % 0 mm
21:05 -13.9 °C -15.8 °C 34875.8 hPa Calm   2.6 km/h 79 % 0 mm
21:08 -11.6 °C -14.9 °C 34875.8 hPa WSW 6.3 km/h 6.3 km/h 67 % 0 mm
21:13 -11.6 °C -14.8 °C 34875.8 hPa West 6.8 km/h 6.8 km/h 67 % 0 mm
21:15 -13.9 °C -15.8 °C 34875.8 hPa Calm     79 % 0 mm
21:25 -14 °C -15.9 °C 34875.8 hPa West 2.6 km/h 2.6 km/h 79 % 0 mm
21:28 -11.8 °C -14.9 °C 34875.8 hPa WSW 6.8 km/h 6.8 km/h 68 % 0 mm
21:33 -11.8 °C -14.9 °C 34875.8 hPa West 6 km/h 6 km/h 68 % 0 mm
21:35 -14 °C -15.9 °C 34875.8 hPa West 2.6 km/h 2.6 km/h 79 % 0 mm
21:38 -11.9 °C -15.1 °C 34875.8 hPa WSW 6.8 km/h 6.8 km/h 68 % 0 mm
21:45 -14 °C -15.9 °C 34875.8 hPa Calm   2.6 km/h 79 % 0 mm
21:48 -11.9 °C -14.9 °C 34875.8 hPa SW 6 km/h 6 km/h 69 % 0 mm
21:55 -14 °C -15.8 °C 34875.8 hPa Calm     80 % 0 mm
21:58 -12 °C -14.9 °C 34875.8 hPa SW 3.1 km/h 3.1 km/h 70 % 0 mm
22:03 -12 °C -14.9 °C 34899.5 hPa WSW 3.1 km/h 3.1 km/h 70 % 0 mm
22:05 -14.1 °C -16 °C 34875.8 hPa Calm     79 % 0 mm
22:08 -12.1 °C -14.9 °C 34899.5 hPa WSW 3.7 km/h 3.7 km/h 70 % 0 mm
22:13 -12.1 °C -14.9 °C 34899.5 hPa NE 6.3 km/h   70 % 0 mm
22:15 -14.2 °C -16.1 °C 34875.8 hPa NW 2.6 km/h 2.6 km/h 79 % 0 mm
22:18 -12.3 °C -15.2 °C 34899.5 hPa NE 6.3 km/h 6.3 km/h 70 % 0 mm
22:23 -12.5 °C -15.4 °C 34899.5 hPa NNE 6.3 km/h 6.3 km/h 70 % 0 mm
22:25 -14.2 °C -16.1 °C 34841.9 hPa Calm   5.1 km/h 79 % 0 mm
22:28 -12.6 °C -15.3 °C 34899.5 hPa Calm     71 % 0 mm
22:33 -12.4 °C -15.3 °C 34899.5 hPa WNW 6 km/h 6 km/h 70 % 0 mm
22:35 -14.2 °C -16.1 °C 34841.9 hPa Calm     79 % 0 mm
22:38 -12.4 °C -15.2 °C 34899.5 hPa Calm     71 % 0 mm
22:43 -12.6 °C -15.3 °C 34899.5 hPa Calm     71 % 0 mm
22:45 -14.2 °C -16 °C 34841.9 hPa WNW 2.6 km/h 2.6 km/h 80 % 0 mm
22:48 -12.6 °C -15.4 °C 34899.5 hPa Calm     71 % 0 mm
22:53 -12.7 °C -15.3 °C 34899.5 hPa West 3.1 km/h   72 % 0 mm
22:55 -14.2 °C -15.9 °C 34841.9 hPa NW 2.6 km/h 2.6 km/h 80 % 0 mm
22:58 -12.7 °C -15.4 °C 34899.5 hPa Calm     72 % 0 mm
23:03 -12.8 °C -15.4 °C 34875.8 hPa Calm     72 % 0 mm
23:08 -12.9 °C -15.6 °C 34875.8 hPa West 4.2 km/h 4.2 km/h 72 % 0 mm
23:13 -12.9 °C -15.6 °C 34875.8 hPa WSW 3.1 km/h 3.1 km/h 72 % 0 mm
23:15 -14.2 °C -15.9 °C 34841.9 hPa Calm     80 % 0 mm
23:18 -12.9 °C -15.4 °C 34899.5 hPa Calm     73 % 0 mm
23:23 -12.9 °C -15.4 °C 34899.5 hPa Calm     74 % 0 mm
23:25 -14.3 °C -16.1 °C 34841.9 hPa Calm   2.6 km/h 80 % 0 mm
23:28 -12.9 °C -15.4 °C 34899.5 hPa Calm     74 % 0 mm
23:33 -13 °C -15.4 °C 34899.5 hPa Calm     74 % 0 mm
23:35 -14.4 °C -16.2 °C 34841.9 hPa Calm   2.6 km/h 80 % 0 mm
23:38 -13 °C -15.4 °C 34899.5 hPa Calm     74 % 0 mm
23:43 -13.1 °C -15.5 °C 34899.5 hPa West 3.1 km/h 3.7 km/h 74 % 0 mm
23:45 -14.4 °C -16.2 °C 34841.9 hPa West 2.6 km/h 5.1 km/h 80 % 0 mm
23:48 -13.1 °C -15.5 °C 34899.5 hPa West 3.7 km/h 3.7 km/h 74 % 0 mm
23:53 -13.2 °C -15.6 °C 34899.5 hPa West 6 km/h 6 km/h 74 % 0 mm
23:55 -14.4 °C -16.2 °C 34841.9 hPa West 2.6 km/h 5.1 km/h 80 % 0 mm
23:58 -13.1 °C -15.5 °C 34899.5 hPa West 3.1 km/h 3.1 km/h 74 % 0 mm
Meteo Sesrovires
Elogis d' Weather Underground - 2.5 mb

Guio original per  Jim McMurry - jmcmurry@mwt.net Adaptat per a la plantilla per  Wim van der Kuil - Leuven-Template.eu

Trobareu la nostra informacio del temps tambe a:

Weather Underground

AWEKAS